PDT,Max TemperatureF,Mean TemperatureF,Min TemperatureF,Max Dew PointF,MeanDew PointF,Min DewpointF,Max Humidity, Mean Humidity, Min Humidity, Max Sea Level PressureIn, Mean Sea Level PressureIn, Min Sea Level PressureIn, Max VisibilityMiles, Mean VisibilityMiles, Min VisibilityMiles, Max Wind SpeedMPH, Mean Wind SpeedMPH, Max Gust SpeedMPH,PrecipitationIn, CloudCover, Events, WindDirDegrees
2013-7-1,110,91,71,61,56,40,68,39,9,29.81,29.77,29.73,10,10,10,8,4,12,0.00,0,,337
2013-7-2,-1000,96,75,63,58,48,51,32,12,29.85,29.78,29.71,10,10,10,15,6,18,0.00,0,,344
2013-7-3,113,96,78,64,58,51,55,35,15,29.84,29.78,29.70,10,10,10,10,6,16,0.00,0,,338
2013-7-4,109,98,87,53,48,42,29,21,13,29.78,29.68,29.57,10,10,10,18,8,26,T,0,,326
2013-7-5,100,90,80,54,46,38,28,21,13,29.68,29.62,29.58,10,10,10,17,7,22,0.00,0,,291
2013-7-6,97,82,66,57,53,46,68,44,20,29.73,29.68,29.62,10,10,10,14,3,18,0.00,0,,164
2013-7-7,100,83,66,59,48,33,73,42,10,29.78,29.73,29.68,10,10,10,14,3,24,0.00,0,,163
2013-7-8,101,83,65,53,43,27,58,33,8,29.92,29.85,29.79,10,10,10,12,4,21,0.00,0,,277
2013-7-9,100,81,61,49,41,21,56,32,7,29.98,29.93,29.88,10,10,10,17,4,25,0.00,0,,285
2013-7-10,102,84,65,48,43,33,48,29,10,29.91,29.83,29.74,10,10,10,21,5,24,0.00,0,,202
2013-7-11,96,79,61,50,40,20,60,34,8,29.86,29.81,29.74,10,10,10,13,3,20,0.00,0,,182
2013-7-12,94,77,60,51,43,22,65,39,12,29.88,29.83,29.77,10,10,10,20,4,24,0.00,0,,180
2013-7-13,98,82,65,48,41,26,52,30,8,29.91,29.86,29.81,10,10,10,15,2,20,0.00,0,,187
2013-7-14,102,83,63,49,39,26,56,32,8,29.93,29.86,29.78,10,10,10,16,5,22,0.00,0,,334
2013-7-15,99,81,62,51,47,41,60,38,16,29.83,29.76,29.68,10,10,10,16,5,23,0.00,0,,221
2013-7-16,91,78,64,49,43,32,56,35,14,29.96,29.85,29.76,10,10,10,16,5,22,0.00,0,,169
2013-7-17,98,77,56,46,37,21,67,37,7,30.05,29.99,29.92,10,10,10,10,2,15,0.00,0,,178
2013-7-18,103,82,60,47,41,26,55,31,7,30.00,29.92,29.81,10,10,10,12,4,15,0.00,0,,347
2013-7-19,107,86,64,56,49,40,56,33,10,29.88,29.80,29.69,10,10,10,14,4,18,0.00,0,,159
2013-7-20,110,90,69,63,54,43,66,39,11,29.78,29.69,29.58,10,10,10,10,3,14,0.00,0,,160
2013-7-21,107,89,71,63,59,50,68,43,18,29.75,29.69,29.61,10,10,10,16,3,21,0.00,0,,160
2013-7-22,101,86,71,63,49,33,54,32,10,29.91,29.84,29.78,10,10,10,15,5,20,0.00,0,,188
2013-7-23,99,84,69,56,50,45,53,35,17,29.94,29.89,29.84,10,10,10,17,5,22,0.00,0,,148
2013-7-24,101,87,72,57,53,48,57,37,17,29.92,29.87,29.80,10,10,10,9,5,13,0.00,0,,195
2013-7-25,107,90,72,66,58,49,64,40,16,29.90,29.85,29.77,10,10,10,14,5,18,0.00,0,,91
2013-7-26,104,90,76,64,58,53,60,40,20,30.00,29.92,29.84,10,10,10,14,4,21,0.00,0,,167
2013-7-27,105,89,72,62,57,52,66,43,19,29.92,29.82,29.70,10,10,10,18,5,23,0.00,0,,161
2013-7-28,100,85,69,63,55,46,61,39,16,29.79,29.73,29.64,10,10,10,17,4,22,0.00,0,,187
2013-7-29,92,80,67,59,49,43,52,36,19,29.94,29.84,29.74,10,9,6,18,6,24,0.00,0,,186
2013-7-30,95,79,62,51,49,43,67,43,18,30.04,29.98,29.92,10,10,7,13,3,17,0.00,0,,174
2013-7-31,94,80,65,54,49,41,63,41,18,29.99,29.93,29.84,10,9,7,16,4,26,0.00,0,,178